sensor_id;sensor_type;location;lat;lon;timestamp;pressure;altitude;pressure_sealevel;temperature
54746;BMP180;40640;48.130;11.356;2023-05-10T00:01:40;95070.00;;;15.30
54746;BMP180;40640;48.130;11.356;2023-05-10T00:05:43;95076.00;;;15.30
54746;BMP180;40640;48.130;11.356;2023-05-10T00:09:46;95079.00;;;15.40
54746;BMP180;40640;48.130;11.356;2023-05-10T00:13:49;95070.00;;;15.40
54746;BMP180;40640;48.130;11.356;2023-05-10T00:17:53;95064.00;;;15.30
54746;BMP180;40640;48.130;11.356;2023-05-10T00:21:56;95062.00;;;15.20
54746;BMP180;40640;48.130;11.356;2023-05-10T00:25:59;95058.00;;;15.20
54746;BMP180;40640;48.130;11.356;2023-05-10T00:30:01;95055.00;;;15.20
54746;BMP180;40640;48.130;11.356;2023-05-10T00:34:06;95053.00;;;15.10
54746;BMP180;40640;48.130;11.356;2023-05-10T00:38:08;95056.00;;;15.20
54746;BMP180;40640;48.130;11.356;2023-05-10T00:42:11;95048.00;;;15.20
54746;BMP180;40640;48.130;11.356;2023-05-10T00:46:15;95053.00;;;15.20
54746;BMP180;40640;48.130;11.356;2023-05-10T00:50:20;95055.00;;;15.00
54746;BMP180;40640;48.130;11.356;2023-05-10T00:54:23;95050.00;;;15.00
54746;BMP180;40640;48.130;11.356;2023-05-10T00:58:26;95050.00;;;14.90
54746;BMP180;40640;48.130;11.356;2023-05-10T01:02:30;95040.00;;;15.10
54746;BMP180;40640;48.130;11.356;2023-05-10T01:06:34;95048.00;;;15.10
54746;BMP180;40640;48.130;11.356;2023-05-10T01:10:37;95041.00;;;15.00
54746;BMP180;40640;48.130;11.356;2023-05-10T01:14:40;95042.00;;;15.00
54746;BMP180;40640;48.130;11.356;2023-05-10T01:18:43;95043.00;;;14.90
54746;BMP180;40640;48.130;11.356;2023-05-10T01:23:24;95041.00;;;14.90
54746;BMP180;40640;48.130;11.356;2023-05-10T01:27:53;95034.00;;;14.90
54746;BMP180;40640;48.130;11.356;2023-05-10T01:36:30;95037.00;;;14.70
54746;BMP180;40640;48.130;11.356;2023-05-10T01:40:37;95032.00;;;14.80
54746;BMP180;40640;48.130;11.356;2023-05-10T01:44:46;95039.00;;;14.70
54746;BMP180;40640;48.130;11.356;2023-05-10T01:48:55;95038.00;;;14.70
54746;BMP180;40640;48.130;11.356;2023-05-10T01:53:01;95044.00;;;14.60
54746;BMP180;40640;48.130;11.356;2023-05-10T01:57:06;95043.00;;;14.60
54746;BMP180;40640;48.130;11.356;2023-05-10T02:01:12;95041.00;;;14.60
54746;BMP180;40640;48.130;11.356;2023-05-10T02:05:17;95044.00;;;14.60
54746;BMP180;40640;48.130;11.356;2023-05-10T02:09:22;95046.00;;;14.60
54746;BMP180;40640;48.130;11.356;2023-05-10T02:13:27;95043.00;;;14.60
54746;BMP180;40640;48.130;11.356;2023-05-10T02:17:31;95044.00;;;14.50
54746;BMP180;40640;48.130;11.356;2023-05-10T02:21:37;95050.00;;;14.60
54746;BMP180;40640;48.130;11.356;2023-05-10T02:25:41;95037.00;;;14.50
54746;BMP180;40640;48.130;11.356;2023-05-10T02:29:46;95045.00;;;14.50
54746;BMP180;40640;48.130;11.356;2023-05-10T02:33:50;95039.00;;;14.40
54746;BMP180;40640;48.130;11.356;2023-05-10T02:37:56;95053.00;;;14.40
54746;BMP180;40640;48.130;11.356;2023-05-10T02:42:00;95048.00;;;14.50
54746;BMP180;40640;48.130;11.356;2023-05-10T02:46:03;95046.00;;;14.40
54746;BMP180;40640;48.130;11.356;2023-05-10T02:50:07;95044.00;;;14.40
54746;BMP180;40640;48.130;11.356;2023-05-10T02:54:19;95041.00;;;14.40
54746;BMP180;40640;48.130;11.356;2023-05-10T02:58:22;95048.00;;;14.50
54746;BMP180;40640;48.130;11.356;2023-05-10T03:02:25;95055.00;;;14.50
54746;BMP180;40640;48.130;11.356;2023-05-10T03:06:28;95053.00;;;14.50
54746;BMP180;40640;48.130;11.356;2023-05-10T03:10:33;95046.00;;;14.30
54746;BMP180;40640;48.130;11.356;2023-05-10T03:14:48;95056.00;;;14.30
54746;BMP180;40640;48.130;11.356;2023-05-10T03:18:56;95058.00;;;14.30
54746;BMP180;40640;48.130;11.356;2023-05-10T03:23:04;95055.00;;;14.20
54746;BMP180;40640;48.130;11.356;2023-05-10T03:27:11;95060.00;;;14.40
54746;BMP180;40640;48.130;11.356;2023-05-10T03:31:17;95057.00;;;14.30
54746;BMP180;40640;48.130;11.356;2023-05-10T03:35:20;95073.00;;;14.30
54746;BMP180;40640;48.130;11.356;2023-05-10T03:39:24;95063.00;;;14.40
54746;BMP180;40640;48.130;11.356;2023-05-10T03:43:33;95066.00;;;14.30
54746;BMP180;40640;48.130;11.356;2023-05-10T03:47:36;95071.00;;;14.20
54746;BMP180;40640;48.130;11.356;2023-05-10T03:51:39;95068.00;;;14.30
54746;BMP180;40640;48.130;11.356;2023-05-10T03:55:42;95074.00;;;14.30
54746;BMP180;40640;48.130;11.356;2023-05-10T03:59:46;95078.00;;;14.20
54746;BMP180;40640;48.130;11.356;2023-05-10T04:03:49;95079.00;;;14.10
54746;BMP180;40640;48.130;11.356;2023-05-10T04:07:52;95082.00;;;14.10
54746;BMP180;40640;48.130;11.356;2023-05-10T04:11:54;95077.00;;;14.10
54746;BMP180;40640;48.130;11.356;2023-05-10T04:15:59;95078.00;;;14.30
54746;BMP180;40640;48.130;11.356;2023-05-10T04:20:01;95087.00;;;14.20
54746;BMP180;40640;48.130;11.356;2023-05-10T04:24:05;95087.00;;;14.20
54746;BMP180;40640;48.130;11.356;2023-05-10T04:28:08;95099.00;;;14.20
54746;BMP180;40640;48.130;11.356;2023-05-10T04:32:12;95096.00;;;14.10
54746;BMP180;40640;48.130;11.356;2023-05-10T04:36:15;95093.00;;;14.00
54746;BMP180;40640;48.130;11.356;2023-05-10T04:40:18;95098.00;;;14.00
54746;BMP180;40640;48.130;11.356;2023-05-10T04:44:21;95113.00;;;14.00
54746;BMP180;40640;48.130;11.356;2023-05-10T04:48:25;95106.00;;;14.00
54746;BMP180;40640;48.130;11.356;2023-05-10T04:52:28;95118.00;;;13.90
54746;BMP180;40640;48.130;11.356;2023-05-10T04:56:30;95109.00;;;13.90
54746;BMP180;40640;48.130;11.356;2023-05-10T05:00:34;95124.00;;;13.90
54746;BMP180;40640;48.130;11.356;2023-05-10T05:04:38;95118.00;;;13.80
54746;BMP180;40640;48.130;11.356;2023-05-10T05:08:40;95133.00;;;13.80
54746;BMP180;40640;48.130;11.356;2023-05-10T05:12:43;95139.00;;;13.80
54746;BMP180;40640;48.130;11.356;2023-05-10T05:16:46;95141.00;;;13.90
54746;BMP180;40640;48.130;11.356;2023-05-10T05:20:50;95152.00;;;13.70
54746;BMP180;40640;48.130;11.356;2023-05-10T05:24:53;95155.00;;;13.70
54746;BMP180;40640;48.130;11.356;2023-05-10T05:28:56;95158.00;;;13.70
54746;BMP180;40640;48.130;11.356;2023-05-10T05:32:59;95156.00;;;13.60
54746;BMP180;40640;48.130;11.356;2023-05-10T05:37:03;95156.00;;;13.60
54746;BMP180;40640;48.130;11.356;2023-05-10T05:41:06;95152.00;;;13.60
54746;BMP180;40640;48.130;11.356;2023-05-10T05:45:09;95156.00;;;13.60
54746;BMP180;40640;48.130;11.356;2023-05-10T05:49:14;95159.00;;;13.70
54746;BMP180;40640;48.130;11.356;2023-05-10T05:53:19;95170.00;;;13.70
54746;BMP180;40640;48.130;11.356;2023-05-10T05:57:21;95168.00;;;13.70
54746;BMP180;40640;48.130;11.356;2023-05-10T06:01:24;95180.00;;;13.70
54746;BMP180;40640;48.130;11.356;2023-05-10T06:05:27;95172.00;;;13.70
54746;BMP180;40640;48.130;11.356;2023-05-10T06:09:31;95172.00;;;13.80
54746;BMP180;40640;48.130;11.356;2023-05-10T06:13:34;95179.00;;;14.00
54746;BMP180;40640;48.130;11.356;2023-05-10T06:17:37;95188.00;;;14.20
54746;BMP180;40640;48.130;11.356;2023-05-10T06:21:40;95188.00;;;14.60
54746;BMP180;40640;48.130;11.356;2023-05-10T06:25:44;95204.00;;;15.00
54746;BMP180;40640;48.130;11.356;2023-05-10T06:29:47;95201.00;;;15.40
54746;BMP180;40640;48.130;11.356;2023-05-10T06:33:54;95207.00;;;15.70
54746;BMP180;40640;48.130;11.356;2023-05-10T06:37:57;95209.00;;;16.00
54746;BMP180;40640;48.130;11.356;2023-05-10T06:42:01;95216.00;;;16.30
54746;BMP180;40640;48.130;11.356;2023-05-10T06:46:07;95206.00;;;16.00
54746;BMP180;40640;48.130;11.356;2023-05-10T06:50:10;95216.00;;;16.20
54746;BMP180;40640;48.130;11.356;2023-05-10T06:54:13;95219.00;;;16.70
54746;BMP180;40640;48.130;11.356;2023-05-10T06:58:17;95227.00;;;17.40
54746;BMP180;40640;48.130;11.356;2023-05-10T07:02:20;95232.00;;;17.30
54746;BMP180;40640;48.130;11.356;2023-05-10T07:06:24;95229.00;;;16.90
54746;BMP180;40640;48.130;11.356;2023-05-10T07:10:34;95234.00;;;16.70
54746;BMP180;40640;48.130;11.356;2023-05-10T07:14:38;95239.00;;;16.60
54746;BMP180;40640;48.130;11.356;2023-05-10T07:18:41;95238.00;;;16.50
54746;BMP180;40640;48.130;11.356;2023-05-10T07:22:44;95245.00;;;16.60
54746;BMP180;40640;48.130;11.356;2023-05-10T07:26:47;95245.00;;;16.60
54746;BMP180;40640;48.130;11.356;2023-05-10T07:30:51;95244.00;;;16.60
54746;BMP180;40640;48.130;11.356;2023-05-10T07:34:54;95241.00;;;16.60
54746;BMP180;40640;48.130;11.356;2023-05-10T07:38:57;95246.00;;;16.70
54746;BMP180;40640;48.130;11.356;2023-05-10T07:43:00;95240.00;;;16.70
54746;BMP180;40640;48.130;11.356;2023-05-10T07:47:05;95243.00;;;16.50
54746;BMP180;40640;48.130;11.356;2023-05-10T07:51:08;95244.00;;;16.60
54746;BMP180;40640;48.130;11.356;2023-05-10T07:55:11;95245.00;;;16.90
54746;BMP180;40640;48.130;11.356;2023-05-10T07:59:15;95239.00;;;17.40
54746;BMP180;40640;48.130;11.356;2023-05-10T08:03:20;95239.00;;;17.30
54746;BMP180;40640;48.130;11.356;2023-05-10T08:07:24;95236.00;;;17.60
54746;BMP180;40640;48.130;11.356;2023-05-10T08:11:27;95230.00;;;17.60
54746;BMP180;40640;48.130;11.356;2023-05-10T08:15:30;95234.00;;;17.50
54746;BMP180;40640;48.130;11.356;2023-05-10T08:19:34;95239.00;;;17.80
54746;BMP180;40640;48.130;11.356;2023-05-10T08:23:37;95241.00;;;18.10
54746;BMP180;40640;48.130;11.356;2023-05-10T08:27:40;95242.00;;;18.20
54746;BMP180;40640;48.130;11.356;2023-05-10T08:31:42;95244.00;;;17.90
54746;BMP180;40640;48.130;11.356;2023-05-10T08:35:47;95248.00;;;17.80
54746;BMP180;40640;48.130;11.356;2023-05-10T08:39:50;95252.00;;;18.20
54746;BMP180;40640;48.130;11.356;2023-05-10T08:43:53;95251.00;;;18.10
54746;BMP180;40640;48.130;11.356;2023-05-10T08:47:56;95249.00;;;17.60
54746;BMP180;40640;48.130;11.356;2023-05-10T08:52:04;95255.00;;;17.10
54746;BMP180;40640;48.130;11.356;2023-05-10T08:56:09;95259.00;;;17.00
54746;BMP180;40640;48.130;11.356;2023-05-10T09:00:13;95257.00;;;17.00
54746;BMP180;40640;48.130;11.356;2023-05-10T09:04:16;95258.00;;;17.40
54746;BMP180;40640;48.130;11.356;2023-05-10T09:08:21;95257.00;;;18.50
54746;BMP180;40640;48.130;11.356;2023-05-10T09:12:27;95260.00;;;19.20
54746;BMP180;40640;48.130;11.356;2023-05-10T09:16:30;95261.00;;;19.00
54746;BMP180;40640;48.130;11.356;2023-05-10T09:20:32;95270.00;;;18.50
54746;BMP180;40640;48.130;11.356;2023-05-10T09:24:37;95262.00;;;18.00
54746;BMP180;40640;48.130;11.356;2023-05-10T09:28:51;95264.00;;;18.00
54746;BMP180;40640;48.130;11.356;2023-05-10T09:32:56;95262.00;;;18.10
54746;BMP180;40640;48.130;11.356;2023-05-10T09:37:00;95251.00;;;18.40
54746;BMP180;40640;48.130;11.356;2023-05-10T09:41:15;95264.00;;;18.50
54746;BMP180;40640;48.130;11.356;2023-05-10T09:45:19;95259.00;;;18.60
54746;BMP180;40640;48.130;11.356;2023-05-10T09:49:22;95254.00;;;18.60
54746;BMP180;40640;48.130;11.356;2023-05-10T09:53:25;95257.00;;;18.90
54746;BMP180;40640;48.130;11.356;2023-05-10T09:57:29;95260.00;;;19.70
54746;BMP180;40640;48.130;11.356;2023-05-10T10:01:35;95266.00;;;20.20
54746;BMP180;40640;48.130;11.356;2023-05-10T10:05:40;95251.00;;;20.20
54746;BMP180;40640;48.130;11.356;2023-05-10T10:09:43;95246.00;;;20.30
54746;BMP180;40640;48.130;11.356;2023-05-10T10:13:48;95244.00;;;20.90
54746;BMP180;40640;48.130;11.356;2023-05-10T10:17:52;95246.00;;;20.50
54746;BMP180;40640;48.130;11.356;2023-05-10T10:21:55;95251.00;;;20.00
54746;BMP180;40640;48.130;11.356;2023-05-10T10:25:58;95252.00;;;19.40
54746;BMP180;40640;48.130;11.356;2023-05-10T10:30:10;95254.00;;;18.90
54746;BMP180;40640;48.130;11.356;2023-05-10T10:34:24;95247.00;;;18.80
54746;BMP180;40640;48.130;11.356;2023-05-10T10:38:58;95244.00;;;19.00
54746;BMP180;40640;48.130;11.356;2023-05-10T10:43:22;95248.00;;;19.40
54746;BMP180;40640;48.130;11.356;2023-05-10T10:47:28;95239.00;;;19.80
54746;BMP180;40640;48.130;11.356;2023-05-10T10:51:36;95248.00;;;20.00
54746;BMP180;40640;48.130;11.356;2023-05-10T10:55:46;95237.00;;;19.60
54746;BMP180;40640;48.130;11.356;2023-05-10T10:59:49;95248.00;;;19.20
54746;BMP180;40640;48.130;11.356;2023-05-10T11:04:20;95252.00;;;18.90
54746;BMP180;40640;48.130;11.356;2023-05-10T11:08:26;95237.00;;;19.00
54746;BMP180;40640;48.130;11.356;2023-05-10T11:12:29;95262.00;;;19.10
54746;BMP180;40640;48.130;11.356;2023-05-10T11:16:41;95261.00;;;18.50
54746;BMP180;40640;48.130;11.356;2023-05-10T11:20:50;95273.00;;;17.80
54746;BMP180;40640;48.130;11.356;2023-05-10T11:24:56;95276.00;;;17.40
54746;BMP180;40640;48.130;11.356;2023-05-10T11:29:00;95284.00;;;17.10
54746;BMP180;40640;48.130;11.356;2023-05-10T11:33:05;95285.00;;;16.80
54746;BMP180;40640;48.130;11.356;2023-05-10T11:37:09;95295.00;;;16.50
54746;BMP180;40640;48.130;11.356;2023-05-10T11:41:12;95286.00;;;16.30
54746;BMP180;40640;48.130;11.356;2023-05-10T11:45:15;95295.00;;;16.20
54746;BMP180;40640;48.130;11.356;2023-05-10T11:49:18;95300.00;;;16.10
54746;BMP180;40640;48.130;11.356;2023-05-10T11:53:26;95300.00;;;16.00
54746;BMP180;40640;48.130;11.356;2023-05-10T11:57:29;95298.00;;;15.80
54746;BMP180;40640;48.130;11.356;2023-05-10T12:01:33;95295.00;;;15.80
54746;BMP180;40640;48.130;11.356;2023-05-10T12:05:37;95304.00;;;15.80
54746;BMP180;40640;48.130;11.356;2023-05-10T12:09:48;95315.00;;;15.90
54746;BMP180;40640;48.130;11.356;2023-05-10T12:14:04;95322.00;;;15.80
54746;BMP180;40640;48.130;11.356;2023-05-10T12:18:08;95317.00;;;15.80
54746;BMP180;40640;48.130;11.356;2023-05-10T12:22:11;95318.00;;;15.90
54746;BMP180;40640;48.130;11.356;2023-05-10T12:26:16;95317.00;;;15.60
54746;BMP180;40640;48.130;11.356;2023-05-10T12:30:20;95324.00;;;15.40
54746;BMP180;40640;48.130;11.356;2023-05-10T12:34:29;95332.00;;;15.40
54746;BMP180;40640;48.130;11.356;2023-05-10T12:38:33;95342.00;;;15.10
54746;BMP180;40640;48.130;11.356;2023-05-10T12:42:38;95342.00;;;15.10
54746;BMP180;40640;48.130;11.356;2023-05-10T12:46:41;95328.00;;;15.00
54746;BMP180;40640;48.130;11.356;2023-05-10T12:50:45;95336.00;;;15.10
54746;BMP180;40640;48.130;11.356;2023-05-10T12:54:47;95325.00;;;14.80
54746;BMP180;40640;48.130;11.356;2023-05-10T12:58:52;95340.00;;;15.00
54746;BMP180;40640;48.130;11.356;2023-05-10T13:02:54;95340.00;;;15.20
54746;BMP180;40640;48.130;11.356;2023-05-10T13:06:59;95349.00;;;15.30
54746;BMP180;40640;48.130;11.356;2023-05-10T13:11:02;95350.00;;;15.20
54746;BMP180;40640;48.130;11.356;2023-05-10T13:15:07;95337.00;;;15.00
54746;BMP180;40640;48.130;11.356;2023-05-10T13:19:10;95350.00;;;15.20
54746;BMP180;40640;48.130;11.356;2023-05-10T13:23:13;95346.00;;;15.00
54746;BMP180;40640;48.130;11.356;2023-05-10T13:27:16;95356.00;;;14.90
54746;BMP180;40640;48.130;11.356;2023-05-10T13:31:20;95349.00;;;14.60
54746;BMP180;40640;48.130;11.356;2023-05-10T13:35:23;95345.00;;;14.40
54746;BMP180;40640;48.130;11.356;2023-05-10T13:39:26;95354.00;;;14.20
54746;BMP180;40640;48.130;11.356;2023-05-10T13:43:32;95346.00;;;14.10
54746;BMP180;40640;48.130;11.356;2023-05-10T13:47:37;95347.00;;;14.20
54746;BMP180;40640;48.130;11.356;2023-05-10T13:51:40;95349.00;;;13.90
54746;BMP180;40640;48.130;11.356;2023-05-10T13:55:43;95342.00;;;13.80
54746;BMP180;40640;48.130;11.356;2023-05-10T13:59:45;95346.00;;;14.00
54746;BMP180;40640;48.130;11.356;2023-05-10T14:03:50;95343.00;;;14.10
54746;BMP180;40640;48.130;11.356;2023-05-10T14:07:53;95339.00;;;14.20
54746;BMP180;40640;48.130;11.356;2023-05-10T14:11:56;95335.00;;;14.20
54746;BMP180;40640;48.130;11.356;2023-05-10T14:15:59;95327.00;;;14.30
54746;BMP180;40640;48.130;11.356;2023-05-10T14:20:04;95340.00;;;14.40
54746;BMP180;40640;48.130;11.356;2023-05-10T14:24:07;95345.00;;;14.60
54746;BMP180;40640;48.130;11.356;2023-05-10T14:28:10;95340.00;;;14.40
54746;BMP180;40640;48.130;11.356;2023-05-10T14:32:14;95341.00;;;14.40
54746;BMP180;40640;48.130;11.356;2023-05-10T14:36:18;95342.00;;;14.50
54746;BMP180;40640;48.130;11.356;2023-05-10T14:40:21;95353.00;;;14.50
54746;BMP180;40640;48.130;11.356;2023-05-10T14:44:24;95348.00;;;14.60
54746;BMP180;40640;48.130;11.356;2023-05-10T14:48:27;95346.00;;;14.50
54746;BMP180;40640;48.130;11.356;2023-05-10T14:52:31;95345.00;;;14.50
54746;BMP180;40640;48.130;11.356;2023-05-10T14:56:35;95344.00;;;14.60
54746;BMP180;40640;48.130;11.356;2023-05-10T15:00:40;95353.00;;;14.50
54746;BMP180;40640;48.130;11.356;2023-05-10T15:04:44;95347.00;;;14.50
54746;BMP180;40640;48.130;11.356;2023-05-10T15:08:48;95347.00;;;14.40
54746;BMP180;40640;48.130;11.356;2023-05-10T15:12:51;95351.00;;;14.50
54746;BMP180;40640;48.130;11.356;2023-05-10T15:16:54;95351.00;;;14.30
54746;BMP180;40640;48.130;11.356;2023-05-10T15:20:57;95359.00;;;14.50
54746;BMP180;40640;48.130;11.356;2023-05-10T15:25:01;95362.00;;;14.50
54746;BMP180;40640;48.130;11.356;2023-05-10T15:29:04;95356.00;;;14.30
54746;BMP180;40640;48.130;11.356;2023-05-10T15:33:07;95354.00;;;14.30
54746;BMP180;40640;48.130;11.356;2023-05-10T15:37:10;95363.00;;;14.30
54746;BMP180;40640;48.130;11.356;2023-05-10T15:41:14;95373.00;;;14.10
54746;BMP180;40640;48.130;11.356;2023-05-10T15:45:17;95366.00;;;14.20
54746;BMP180;40640;48.130;11.356;2023-05-10T15:49:20;95374.00;;;14.20
54746;BMP180;40640;48.130;11.356;2023-05-10T15:53:23;95373.00;;;14.20
54746;BMP180;40640;48.130;11.356;2023-05-10T15:57:27;95382.00;;;14.30
54746;BMP180;40640;48.130;11.356;2023-05-10T16:01:30;95381.00;;;14.20
54746;BMP180;40640;48.130;11.356;2023-05-10T16:05:33;95379.00;;;14.20
54746;BMP180;40640;48.130;11.356;2023-05-10T16:09:36;95389.00;;;14.10
54746;BMP180;40640;48.130;11.356;2023-05-10T16:13:40;95387.00;;;14.10
54746;BMP180;40640;48.130;11.356;2023-05-10T16:17:43;95389.00;;;14.10
54746;BMP180;40640;48.130;11.356;2023-05-10T16:21:46;95387.00;;;14.20
54746;BMP180;40640;48.130;11.356;2023-05-10T16:25:49;95384.00;;;14.00
54746;BMP180;40640;48.130;11.356;2023-05-10T16:29:53;95387.00;;;13.80
54746;BMP180;40640;48.130;11.356;2023-05-10T16:33:56;95405.00;;;13.80
54746;BMP180;40640;48.130;11.356;2023-05-10T16:37:59;95397.00;;;13.90
54746;BMP180;40640;48.130;11.356;2023-05-10T16:42:02;95400.00;;;13.70
54746;BMP180;40640;48.130;11.356;2023-05-10T16:46:10;95401.00;;;13.70
54746;BMP180;40640;48.130;11.356;2023-05-10T16:50:13;95413.00;;;13.60
54746;BMP180;40640;48.130;11.356;2023-05-10T16:54:18;95413.00;;;13.50
54746;BMP180;40640;48.130;11.356;2023-05-10T16:58:22;95418.00;;;13.40
54746;BMP180;40640;48.130;11.356;2023-05-10T17:02:26;95420.00;;;13.50
54746;BMP180;40640;48.130;11.356;2023-05-10T17:06:29;95423.00;;;13.20
54746;BMP180;40640;48.130;11.356;2023-05-10T17:10:32;95432.00;;;13.10
54746;BMP180;40640;48.130;11.356;2023-05-10T17:14:35;95423.00;;;13.20
54746;BMP180;40640;48.130;11.356;2023-05-10T17:18:40;95439.00;;;13.20
54746;BMP180;40640;48.130;11.356;2023-05-10T17:22:43;95439.00;;;13.10
54746;BMP180;40640;48.130;11.356;2023-05-10T17:26:46;95436.00;;;13.10
54746;BMP180;40640;48.130;11.356;2023-05-10T17:30:54;95444.00;;;13.00
54746;BMP180;40640;48.130;11.356;2023-05-10T17:34:59;95437.00;;;13.00
54746;BMP180;40640;48.130;11.356;2023-05-10T17:39:02;95439.00;;;12.80
54746;BMP180;40640;48.130;11.356;2023-05-10T17:43:05;95443.00;;;12.90
54746;BMP180;40640;48.130;11.356;2023-05-10T17:47:08;95442.00;;;12.90
54746;BMP180;40640;48.130;11.356;2023-05-10T17:51:12;95443.00;;;12.80
54746;BMP180;40640;48.130;11.356;2023-05-10T17:55:16;95454.00;;;12.80
54746;BMP180;40640;48.130;11.356;2023-05-10T17:59:20;95451.00;;;12.70
54746;BMP180;40640;48.130;11.356;2023-05-10T18:03:23;95458.00;;;12.70
54746;BMP180;40640;48.130;11.356;2023-05-10T18:07:27;95463.00;;;12.70
54746;BMP180;40640;48.130;11.356;2023-05-10T18:11:30;95451.00;;;12.50
54746;BMP180;40640;48.130;11.356;2023-05-10T18:15:33;95459.00;;;12.50
54746;BMP180;40640;48.130;11.356;2023-05-10T18:19:36;95450.00;;;12.50
54746;BMP180;40640;48.130;11.356;2023-05-10T18:23:41;95451.00;;;12.50
54746;BMP180;40640;48.130;11.356;2023-05-10T18:27:44;95445.00;;;12.40
54746;BMP180;40640;48.130;11.356;2023-05-10T18:31:46;95447.00;;;12.50
54746;BMP180;40640;48.130;11.356;2023-05-10T18:35:49;95448.00;;;12.30
54746;BMP180;40640;48.130;11.356;2023-05-10T18:39:54;95451.00;;;12.40
54746;BMP180;40640;48.130;11.356;2023-05-10T18:43:57;95453.00;;;12.30
54746;BMP180;40640;48.130;11.356;2023-05-10T18:48:00;95458.00;;;12.30
54746;BMP180;40640;48.130;11.356;2023-05-10T18:52:03;95448.00;;;12.30
54746;BMP180;40640;48.130;11.356;2023-05-10T18:56:07;95453.00;;;12.20
54746;BMP180;40640;48.130;11.356;2023-05-10T19:00:11;95454.00;;;12.10
54746;BMP180;40640;48.130;11.356;2023-05-10T19:04:15;95444.00;;;12.10
54746;BMP180;40640;48.130;11.356;2023-05-10T19:08:17;95450.00;;;12.10
54746;BMP180;40640;48.130;11.356;2023-05-10T19:12:22;95466.00;;;12.10
54746;BMP180;40640;48.130;11.356;2023-05-10T19:16:24;95458.00;;;12.20
54746;BMP180;40640;48.130;11.356;2023-05-10T19:20:29;95460.00;;;12.20
54746;BMP180;40640;48.130;11.356;2023-05-10T19:24:32;95458.00;;;12.10
54746;BMP180;40640;48.130;11.356;2023-05-10T19:28:37;95463.00;;;12.00
54746;BMP180;40640;48.130;11.356;2023-05-10T19:32:40;95466.00;;;11.90
54746;BMP180;40640;48.130;11.356;2023-05-10T19:36:44;95474.00;;;11.90
54746;BMP180;40640;48.130;11.356;2023-05-10T19:40:47;95465.00;;;12.00
54746;BMP180;40640;48.130;11.356;2023-05-10T19:44:52;95454.00;;;12.00
54746;BMP180;40640;48.130;11.356;2023-05-10T19:48:55;95463.00;;;11.80
54746;BMP180;40640;48.130;11.356;2023-05-10T19:52:58;95461.00;;;12.00
54746;BMP180;40640;48.130;11.356;2023-05-10T19:57:01;95460.00;;;11.90
54746;BMP180;40640;48.130;11.356;2023-05-10T20:01:05;95467.00;;;11.90
54746;BMP180;40640;48.130;11.356;2023-05-10T20:05:32;95461.00;;;11.90
54746;BMP180;40640;48.130;11.356;2023-05-10T20:09:35;95459.00;;;11.70
54746;BMP180;40640;48.130;11.356;2023-05-10T20:13:38;95460.00;;;11.80
54746;BMP180;40640;48.130;11.356;2023-05-10T20:17:42;95460.00;;;11.80
54746;BMP180;40640;48.130;11.356;2023-05-10T20:21:45;95458.00;;;11.60
54746;BMP180;40640;48.130;11.356;2023-05-10T20:25:48;95462.00;;;11.70
54746;BMP180;40640;48.130;11.356;2023-05-10T20:29:51;95461.00;;;11.70
54746;BMP180;40640;48.130;11.356;2023-05-10T20:33:55;95459.00;;;11.60
54746;BMP180;40640;48.130;11.356;2023-05-10T20:37:58;95461.00;;;11.60
54746;BMP180;40640;48.130;11.356;2023-05-10T20:42:02;95469.00;;;11.60
54746;BMP180;40640;48.130;11.356;2023-05-10T20:46:06;95460.00;;;11.60
54746;BMP180;40640;48.130;11.356;2023-05-10T20:50:10;95463.00;;;11.40
54746;BMP180;40640;48.130;11.356;2023-05-10T20:54:13;95454.00;;;11.50
54746;BMP180;40640;48.130;11.356;2023-05-10T20:58:16;95452.00;;;11.40
54746;BMP180;40640;48.130;11.356;2023-05-10T21:02:19;95446.00;;;11.40
54746;BMP180;40640;48.130;11.356;2023-05-10T21:06:23;95463.00;;;11.40
54746;BMP180;40640;48.130;11.356;2023-05-10T21:10:26;95444.00;;;11.30
54746;BMP180;40640;48.130;11.356;2023-05-10T21:14:29;95442.00;;;11.30
54746;BMP180;40640;48.130;11.356;2023-05-10T21:18:32;95434.00;;;11.30
54746;BMP180;40640;48.130;11.356;2023-05-10T21:22:36;95434.00;;;11.20
54746;BMP180;40640;48.130;11.356;2023-05-10T21:26:39;95435.00;;;11.20
54746;BMP180;40640;48.130;11.356;2023-05-10T21:30:42;95431.00;;;11.00
54746;BMP180;40640;48.130;11.356;2023-05-10T21:34:45;95428.00;;;11.00
54746;BMP180;40640;48.130;11.356;2023-05-10T21:38:49;95425.00;;;11.00
54746;BMP180;40640;48.130;11.356;2023-05-10T21:42:52;95424.00;;;11.10
54746;BMP180;40640;48.130;11.356;2023-05-10T21:46:55;95420.00;;;11.00
54746;BMP180;40640;48.130;11.356;2023-05-10T21:50:58;95428.00;;;11.00
54746;BMP180;40640;48.130;11.356;2023-05-10T21:55:04;95437.00;;;10.80
54746;BMP180;40640;48.130;11.356;2023-05-10T21:59:08;95429.00;;;10.80
54746;BMP180;40640;48.130;11.356;2023-05-10T22:03:11;95422.00;;;10.90
54746;BMP180;40640;48.130;11.356;2023-05-10T22:07:15;95432.00;;;10.90
54746;BMP180;40640;48.130;11.356;2023-05-10T22:11:19;95435.00;;;10.60
54746;BMP180;40640;48.130;11.356;2023-05-10T22:15:22;95426.00;;;10.60
54746;BMP180;40640;48.130;11.356;2023-05-10T22:19:28;95434.00;;;10.70
54746;BMP180;40640;48.130;11.356;2023-05-10T22:23:31;95429.00;;;10.60
54746;BMP180;40640;48.130;11.356;2023-05-10T22:27:35;95434.00;;;10.70
54746;BMP180;40640;48.130;11.356;2023-05-10T22:31:38;95435.00;;;10.70
54746;BMP180;40640;48.130;11.356;2023-05-10T22:35:41;95433.00;;;10.50
54746;BMP180;40640;48.130;11.356;2023-05-10T22:39:44;95442.00;;;10.60
54746;BMP180;40640;48.130;11.356;2023-05-10T22:43:48;95437.00;;;10.60
54746;BMP180;40640;48.130;11.356;2023-05-10T22:47:51;95437.00;;;10.50
54746;BMP180;40640;48.130;11.356;2023-05-10T22:51:54;95431.00;;;10.40
54746;BMP180;40640;48.130;11.356;2023-05-10T22:55:57;95435.00;;;10.20
54746;BMP180;40640;48.130;11.356;2023-05-10T23:00:02;95429.00;;;10.40
54746;BMP180;40640;48.130;11.356;2023-05-10T23:04:06;95430.00;;;10.40
54746;BMP180;40640;48.130;11.356;2023-05-10T23:08:08;95423.00;;;10.40
54746;BMP180;40640;48.130;11.356;2023-05-10T23:12:11;95419.00;;;10.40